Time;durP1;ratioP1;P1;durP2;ratioP2;P2;SDS_P1;SDS_P2;PMS_P1;PMS_P2;Temp;Humidity;BMP_temperature;BMP_pressure;BME280_temperature;BME280_humidity;BME280_pressure;Samples;Min_cycle;Max_cycle;Signal;HPM_P1;HPM_P2
2022/09/29 00:00:44;;;;;;;13.32;10.95;;;;;;;;;;5034921;28;20427;-80
2022/09/29 00:03:10;;;;;;;13.20;10.80;;;;;;;;;;5068823;28;20418;-80
2022/09/29 00:05:36;;;;;;;13.25;11.07;;;;;;;;;;5035851;28;20736;-80
2022/09/29 00:08:02;;;;;;;13.88;10.70;;;;;;;;;;5039517;28;20427;-79
2022/09/29 00:10:28;;;;;;;15.48;12.18;;;;;;;;;;5039564;28;20548;-79
2022/09/29 00:12:55;;;;;;;14.68;11.40;;;;;;;;;;5068702;28;20844;-79
2022/09/29 00:15:21;;;;;;;16.37;10.97;;;;;;;;;;5054572;28;20451;-79
2022/09/29 00:17:47;;;;;;;16.15;11.98;;;;;;;;;;5065237;28;20422;-79
2022/09/29 00:20:13;;;;;;;15.32;11.57;;;;;;;;;;5076243;28;20426;-79
2022/09/29 00:22:39;;;;;;;15.27;12.50;;;;;;;;;;5068862;28;20476;-80
2022/09/29 00:25:05;;;;;;;14.35;11.63;;;;;;;;;;5055430;28;20479;-80
2022/09/29 00:27:31;;;;;;;14.55;11.02;;;;;;;;;;5060639;28;20716;-80
2022/09/29 00:29:57;;;;;;;14.25;11.00;;;;;;;;;;5046252;28;20826;-80
2022/09/29 00:32:23;;;;;;;13.35;10.73;;;;;;;;;;5039970;28;20502;-80
2022/09/29 00:34:49;;;;;;;15.25;11.45;;;;;;;;;;5027948;28;20423;-80
2022/09/29 00:37:16;;;;;;;14.40;10.85;;;;;;;;;;5055125;28;20436;-80
2022/09/29 00:39:42;;;;;;;13.23;10.27;;;;;;;;;;5065958;28;20426;-79
2022/09/29 00:42:10;;;;;;;11.05;9.35;;;;;;;;;;5070280;28;20419;-80
2022/09/29 00:45:20;;;;;;;11.60;9.48;;;7.10;99.90;;;;;;5055281;28;20430;-79
2022/09/29 00:48:20;;;;;;;12.87;10.33;;;6.90;99.90;;;;;;5032505;28;20774;-79
2022/09/29 00:50:50;;;;;;;15.20;10.55;;;;;;;;;;5058099;28;20873;-79
2022/09/29 00:53:16;;;;;;;16.27;11.32;;;;;;;;;;5071824;28;20429;-79
2022/09/29 00:55:57;;;;;;;12.73;10.63;;;6.80;99.90;;;;;;5058873;28;20475;-79
2022/09/29 00:58:26;;;;;;;14.45;10.52;;;;;;;;;;5055649;28;20424;-79
2022/09/29 01:00:54;;;;;;;13.13;10.73;;;;;;;;;;5055229;28;20411;-79
2022/09/29 01:03:22;;;;;;;12.25;9.50;;;6.70;99.90;;;;;;5038261;28;20419;-79
2022/09/29 01:05:56;;;;;;;12.35;9.73;;;;;;;;;;5054409;28;20481;-79
2022/09/29 01:08:30;;;;;;;13.13;10.50;;;;;;;;;;5055475;28;20959;-80
2022/09/29 01:10:56;;;;;;;13.40;10.38;;;;;;;;;;5074900;28;20402;-80
2022/09/29 01:13:23;;;;;;;13.02;10.88;;;;;;;;;;5039028;28;20839;-79
2022/09/29 01:15:49;;;;;;;12.98;10.50;;;;;;;;;;5054904;28;20461;-80
2022/09/29 01:18:15;;;;;;;12.85;11.05;;;;;;;;;;5060943;28;20410;-80
2022/09/29 01:20:48;;;;;;;12.20;9.82;;;;;;;;;;5070110;28;20425;-80
2022/09/29 01:23:14;;;;;;;13.68;11.00;;;;;;;;;;5056484;28;20462;-80
2022/09/29 01:25:43;;;;;;;13.95;11.05;;;;;;;;;;5054217;28;20418;-79
2022/09/29 01:28:38;;;;;;;17.63;12.35;;;6.50;99.90;;;;;;5037479;28;20420;-79
2022/09/29 01:31:07;;;;;;;16.98;12.80;;;;;;;;;;5052933;28;20455;-80
2022/09/29 01:33:43;;;;;;;13.95;11.68;;;6.40;99.90;;;;;;5066100;28;20935;-80
2022/09/29 01:36:27;;;;;;;13.90;11.60;;;;;;;;;;5067616;28;20426;-80
2022/09/29 01:39:02;;;;;;;16.83;13.33;;;;;;;;;;5058022;28;20512;-80
2022/09/29 01:41:35;;;;;;;17.98;13.65;;;6.40;99.90;;;;;;5054348;28;20419;-80
2022/09/29 01:44:08;;;;;;;47.20;18.00;;;;;;;;;;5036850;28;20463;-80
2022/09/29 01:46:37;;;;;;;19.02;14.05;;;;;;;;;;5037630;28;20415;-80
2022/09/29 01:49:04;;;;;;;59.17;18.52;;;;;;;;;;5062325;28;20424;-80
2022/09/29 01:51:39;;;;;;;95.75;22.15;;;;;;;;;;5051547;28;20419;-79
2022/09/29 01:54:09;;;;;;;90.05;19.85;;;;;;;;;;5053708;28;20447;-79
2022/09/29 01:56:59;;;;;;;55.25;17.85;;;6.30;99.90;;;;;;5059185;28;20484;-80
2022/09/29 01:59:33;;;;;;;42.90;16.13;;;;;;;;;;5053904;28;20462;-80
2022/09/29 02:02:03;;;;;;;36.92;16.17;;;;;;;;;;5052330;28;20430;-79
2022/09/29 02:04:35;;;;;;;38.23;15.40;;;6.40;99.90;;;;;;5070423;28;20398;-79
2022/09/29 02:07:03;;;;;;;38.70;16.45;;;;;;;;;;5059999;28;20498;-79
2022/09/29 02:09:37;;;;;;;25.38;16.10;;;6.40;99.90;;;;;;5039158;28;20427;-79
2022/09/29 02:12:06;;;;;;;25.85;16.83;;;6.60;99.90;;;;;;5063064;28;20417;-79
2022/09/29 02:14:44;;;;;;;21.63;15.03;;;6.10;99.90;;;;;;5074014;28;20551;-78
2022/09/29 02:17:18;;;;;;;24.27;15.30;;;6.20;99.90;;;;;;5057988;28;20418;-79
2022/09/29 02:19:46;;;;;;;18.85;14.25;;;6.20;99.90;;;;;;5047559;28;20435;-78
2022/09/29 02:22:12;;;;;;;22.92;15.85;;;;;;;;;;5067890;28;20418;-78
2022/09/29 02:24:38;;;;;;;18.60;14.20;;;;;;;;;;5084480;28;20408;-78
2022/09/29 02:27:05;;;;;;;19.95;14.55;;;;;;;;;;5049141;28;20415;-78
2022/09/29 02:29:33;;;;;;;20.30;14.77;;;;;;;;;;5052457;28;20438;-78
2022/09/29 02:32:01;;;;;;;21.98;15.27;;;;;;;;;;5045359;28;20953;-78
2022/09/29 02:34:32;;;;;;;19.95;14.48;;;5.80;99.90;;;;;;5053554;28;21007;-79
2022/09/29 02:36:58;;;;;;;21.98;15.73;;;;;;;;;;5063903;28;20423;-79
2022/09/29 02:39:27;;;;;;;24.90;16.52;;;;;;;;;;5045675;28;20506;-79
2022/09/29 02:42:08;;;;;;;28.38;16.85;;;5.90;99.90;;;;;;5061657;28;20463;-79
2022/09/29 02:44:47;;;;;;;18.10;14.27;;;6.10;99.90;;;;;;5069424;28;20400;-78
2022/09/29 02:47:49;;;;;;;20.27;14.70;;;;;;;;;;5067206;28;20417;-78
2022/09/29 02:50:50;;;;;;;18.93;14.93;;;6.20;99.90;;;;;;4985754;28;20441;-78
2022/09/29 02:53:19;;;;;;;19.02;13.77;;;;;;;;;;5036521;28;20512;-78
2022/09/29 02:55:45;;;;;;;18.90;14.45;;;;;;;;;;5064514;28;20510;-78
2022/09/29 02:58:26;;;;;;;18.63;14.20;;;;;;;;;;5061513;28;20505;-78
2022/09/29 03:00:53;;;;;;;30.63;16.08;;;;;;;;;;5044608;28;20484;-78
2022/09/29 03:03:19;;;;;;;58.42;17.77;;;;;;;;;;5037359;28;20477;-78
2022/09/29 03:05:45;;;;;;;94.15;20.92;;;;;;;;;;5052865;28;20395;-78
2022/09/29 03:08:11;;;;;;;107.53;22.65;;;;;;;;;;5059733;28;20467;-78
2022/09/29 03:10:37;;;;;;;98.50;22.38;;;;;;;;;;5064352;28;20451;-78
2022/09/29 03:13:04;;;;;;;84.32;22.42;;;;;;;;;;5052625;28;20419;-77
2022/09/29 03:15:30;;;;;;;110.22;23.15;;;;;;;;;;5052969;28;20482;-78
2022/09/29 03:17:56;;;;;;;247.00;28.80;;;;;;;;;;5070500;28;20501;-78
2022/09/29 03:20:22;;;;;;;285.87;30.93;;;;;;;;;;5061553;28;20438;-78
2022/09/29 03:22:48;;;;;;;164.57;22.10;;;;;;;;;;5035577;28;20504;-78
2022/09/29 03:25:14;;;;;;;119.57;22.15;;;;;;;;;;5049909;28;20418;-78
2022/09/29 03:27:41;;;;;;;199.10;25.13;;;5.90;99.90;;;;;;5061912;28;20430;-79
2022/09/29 03:30:07;;;;;;;111.55;20.88;;;;;;;;;;5057373;28;20436;-79
2022/09/29 03:32:33;;;;;;;67.88;19.80;;;;;;;;;;5068579;28;20427;-78
2022/09/29 03:34:59;;;;;;;41.33;18.10;;;;;;;;;;5052149;28;20423;-79
2022/09/29 03:37:25;;;;;;;28.95;17.13;;;;;;;;;;5038254;28;20926;-79
2022/09/29 03:39:51;;;;;;;30.08;16.15;;;;;;;;;;5053185;28;20788;-77
2022/09/29 03:42:18;;;;;;;45.65;19.33;;;;;;;;;;5057149;28;20915;-77
2022/09/29 03:44:44;;;;;;;63.97;20.17;;;;;;;;;;5056140;28;20914;-79
2022/09/29 03:47:10;;;;;;;84.38;21.85;;;;;;;;;;5069726;28;20499;-78
2022/09/29 03:49:36;;;;;;;28.70;16.98;;;;;;;;;;5089596;28;20417;-74
2022/09/29 03:52:02;;;;;;;45.78;17.73;;;;;;;;;;5057069;28;20886;-73
2022/09/29 03:54:28;;;;;;;45.40;19.13;;;;;;;;;;5076390;28;20429;-74
2022/09/29 03:56:54;;;;;;;24.25;16.02;;;;;;;;;;5058478;28;20431;-74
2022/09/29 03:59:20;;;;;;;49.85;19.88;;;;;;;;;;5039670;28;20525;-74
2022/09/29 04:01:46;;;;;;;54.55;20.80;;;;;;;;;;5035020;28;20516;-74
2022/09/29 04:04:13;;;;;;;126.93;25.00;;;;;;;;;;5056048;28;20404;-74
2022/09/29 04:06:39;;;;;;;138.98;27.50;;;;;;;;;;5042822;28;20423;-74
2022/09/29 04:09:05;;;;;;;62.90;21.27;;;;;;;;;;5039161;28;20462;-74
2022/09/29 04:11:31;;;;;;;47.00;21.35;;;;;;;;;;5071929;28;20412;-75
2022/09/29 04:13:57;;;;;;;41.25;20.65;;;;;;;;;;5055606;28;20414;-75
2022/09/29 04:16:23;;;;;;;30.83;20.35;;;;;;;;;;5064207;28;20419;-75
2022/09/29 04:18:49;;;;;;;33.58;20.98;;;;;;;;;;5038830;28;20953;-75
2022/09/29 04:21:16;;;;;;;38.70;23.13;;;;;;;;;;5038753;28;20420;-75
2022/09/29 04:23:42;;;;;;;53.67;25.50;;;;;;;;;;5039284;28;20914;-74
2022/09/29 04:26:08;;;;;;;40.47;23.38;;;;;;;;;;5054116;28;20451;-74
2022/09/29 04:28:35;;;;;;;45.17;23.30;;;;;;;;;;5055592;28;20408;-74
2022/09/29 04:31:01;;;;;;;87.47;24.58;;;;;;;;;;5058606;28;20490;-74
2022/09/29 04:33:28;;;;;;;90.72;26.02;;;;;;;;;;5056161;28;20800;-75
2022/09/29 04:35:55;;;;;;;101.25;27.10;;;;;;;;;;5045847;28;20445;-74
2022/09/29 04:38:21;;;;;;;84.43;26.90;;;;;;;;;;5053918;28;20427;-74
2022/09/29 04:40:47;;;;;;;60.92;23.15;;;;;;;;;;5060935;28;20418;-74
2022/09/29 04:43:14;;;;;;;73.78;24.50;;;;;;;;;;5059447;28;20864;-74
2022/09/29 04:45:40;;;;;;;141.82;28.52;;;;;;;;;;5044475;28;20419;-73
2022/09/29 04:48:06;;;;;;;166.40;30.90;;;;;;;;;;5052955;28;20557;-73
2022/09/29 04:50:32;;;;;;;107.75;27.80;;;;;;;;;;5066561;28;20940;-73
2022/09/29 04:52:59;;;;;;;105.90;26.73;;;;;;;;;;5056277;28;20432;-73
2022/09/29 04:55:25;;;;;;;84.05;26.27;;;;;;;;;;5054856;28;20431;-73
2022/09/29 04:57:51;;;;;;;97.88;29.02;;;;;;;;;;5037500;28;20736;-73
2022/09/29 05:00:17;;;;;;;96.20;27.77;;;;;;;;;;5055917;28;20423;-73
2022/09/29 05:02:44;;;;;;;70.47;27.30;;;;;;;;;;5055160;28;20415;-73
2022/09/29 05:05:11;;;;;;;60.67;26.65;;;;;;;;;;5055667;28;20420;-72
2022/09/29 05:07:41;;;;;;;46.60;25.13;;;;;;;;;;5054432;28;20450;-73
2022/09/29 05:10:08;;;;;;;30.00;21.30;;;;;;;;;;5061312;28;20509;-72
2022/09/29 05:12:34;;;;;;;28.42;20.63;;;;;;;;;;5057926;28;20444;-73
2022/09/29 05:15:00;;;;;;;28.95;21.50;;;;;;;;;;5074715;28;20409;-73
2022/09/29 05:17:26;;;;;;;28.20;21.10;;;;;;;;;;5067534;28;20449;-73
2022/09/29 05:19:52;;;;;;;27.80;21.02;;;;;;;;;;5072941;28;20418;-73
2022/09/29 05:22:23;;;;;;;30.80;21.27;;;;;;;;;;5071800;28;20450;-73
2022/09/29 05:24:49;;;;;;;37.22;22.67;;;;;;;;;;5053253;28;20412;-72
2022/09/29 05:27:15;;;;;;;32.15;22.17;;;;;;;;;;5045199;28;20423;-72
2022/09/29 05:29:42;;;;;;;49.10;23.88;;;;;;;;;;5037993;28;20427;-73
2022/09/29 05:32:08;;;;;;;146.60;31.48;;;;;;;;;;5067241;28;20433;-72
2022/09/29 05:34:34;;;;;;;92.32;27.17;;;;;;;;;;5046528;28;20424;-72
2022/09/29 05:37:00;;;;;;;66.13;24.90;;;;;;;;;;5060858;28;20425;-73
2022/09/29 05:39:26;;;;;;;46.70;23.42;;;;;;;;;;5063336;28;20433;-72
2022/09/29 05:41:52;;;;;;;662.57;73.63;;;;;;;;;;5077504;28;20429;-72
2022/09/29 05:44:18;;;;;;;36.95;22.40;;;;;;;;;;5056571;28;20397;-76
2022/09/29 05:46:45;;;;;;;38.63;23.98;;;;;;;;;;5054781;28;20427;-74
2022/09/29 05:49:11;;;;;;;29.08;21.70;;;;;;;;;;5060560;28;20429;-74
2022/09/29 05:51:37;;;;;;;33.10;22.35;;;;;;;;;;5062018;28;20412;-73
2022/09/29 05:54:03;;;;;;;25.63;19.48;;;;;;;;;;5041426;28;20419;-74
2022/09/29 05:56:29;;;;;;;25.98;19.05;;;;;;;;;;5056916;28;20907;-75
2022/09/29 05:58:55;;;;;;;25.88;19.05;;;;;;;;;;5055512;28;20432;-73
2022/09/29 06:01:25;;;;;;;25.27;19.08;;;;;;;;;;5075304;28;20548;-72
2022/09/29 06:03:53;;;;;;;25.33;19.20;;;4.70;99.90;;;;;;5058637;28;20522;-72
2022/09/29 06:06:22;;;;;;;25.23;19.00;;;;;;;;;;5052985;28;20423;-72
2022/09/29 06:08:48;;;;;;;24.27;17.27;;;;;;;;;;5057052;28;20430;-72
2022/09/29 06:11:17;;;;;;;25.33;18.55;;;5.10;99.90;;;;;;5063623;28;20560;-73
2022/09/29 06:13:44;;;;;;;30.48;19.55;;;;;;;;;;5056176;28;20487;-73
2022/09/29 06:16:10;;;;;;;27.50;19.60;;;;;;;;;;5056926;28;20453;-72
2022/09/29 06:18:37;;;;;;;27.23;19.50;;;;;;;;;;5065706;28;20433;-72
2022/09/29 06:21:06;;;;;;;30.40;20.75;;;;;;;;;;5051070;28;20419;-72
2022/09/29 06:23:32;;;;;;;27.25;20.55;;;;;;;;;;5059667;28;20463;-72
2022/09/29 06:26:00;;;;;;;29.77;20.63;;;;;;;;;;5076247;28;20416;-72
2022/09/29 06:28:27;;;;;;;23.58;19.33;;;;;;;;;;5053324;28;20442;-72
2022/09/29 06:30:57;;;;;;;24.55;18.55;;;;;;;;;;5056876;28;20432;-72
2022/09/29 06:33:23;;;;;;;21.65;17.55;;;;;;;;;;5052989;28;20427;-73
2022/09/29 06:38:35;;;;;;;22.63;17.27;;;;;;;;;;5060444;28;20439;-73
2022/09/29 06:41:02;;;;;;;22.15;18.02;;;;;;;;;;5059812;28;20463;-73
2022/09/29 06:43:28;;;;;;;23.57;18.20;;;;;;;;;;5042341;28;20503;-73
2022/09/29 06:45:54;;;;;;;22.27;18.45;;;;;;;;;;5052128;28;20439;-77
2022/09/29 06:48:20;;;;;;;23.45;19.08;;;;;;;;;;5050666;28;20919;-72
2022/09/29 06:50:47;;;;;;;24.75;19.75;;;;;;;;;;5056200;28;20556;-72
2022/09/29 06:53:13;;;;;;;24.35;19.58;;;;;;;;;;5053167;28;20427;-73
2022/09/29 06:55:39;;;;;;;28.52;20.75;;;;;;;;;;5036581;28;20412;-73
2022/09/29 06:58:06;;;;;;;25.38;20.83;;;;;;;;;;5067323;28;20428;-73
2022/09/29 07:00:33;;;;;;;27.83;20.73;;;;;;;;;;5048215;28;20478;-73
2022/09/29 07:02:59;;;;;;;25.15;20.50;;;;;;;;;;5050667;28;20421;-73
2022/09/29 07:05:25;;;;;;;23.25;18.92;;;;;;;;;;5056293;28;20432;-73
2022/09/29 07:07:52;;;;;;;26.10;20.42;;;;;;;;;;5070583;28;20422;-73
2022/09/29 07:10:18;;;;;;;26.00;21.08;;;;;;;;;;5060535;28;20621;-73
2022/09/29 07:12:45;;;;;;;22.88;19.13;;;;;;;;;;5066127;28;20453;-73
2022/09/29 07:15:12;;;;;;;20.98;17.45;;;;;;;;;;5062590;28;20941;-73
2022/09/29 07:17:38;;;;;;;19.95;16.40;;;;;;;;;;5064755;28;20489;-73
2022/09/29 07:20:04;;;;;;;19.98;16.13;;;;;;;;;;5067662;28;20502;-73
2022/09/29 07:22:30;;;;;;;18.88;15.98;;;;;;;;;;5058415;28;20446;-73
2022/09/29 07:24:56;;;;;;;19.10;15.93;;;;;;;;;;5056633;28;21119;-73
2022/09/29 07:27:23;;;;;;;18.33;15.90;;;;;;;;;;5041600;28;20475;-73
2022/09/29 07:29:52;;;;;;;17.80;15.43;;;;;;;;;;5041483;28;20450;-73
2022/09/29 07:32:19;;;;;;;19.27;15.45;;;;;;;;;;5068973;28;20430;-73
2022/09/29 07:34:45;;;;;;;18.58;15.48;;;;;;;;;;5076264;28;20414;-72
2022/09/29 07:37:11;;;;;;;19.15;15.75;;;;;;;;;;5054518;28;20429;-72
2022/09/29 07:39:38;;;;;;;19.92;15.35;;;;;;;;;;5049357;28;20422;-73
2022/09/29 07:42:04;;;;;;;18.43;15.30;;;;;;;;;;5065058;28;20530;-73
2022/09/29 07:44:31;;;;;;;19.52;14.50;;;;;;;;;;5043827;28;20421;-73
2022/09/29 07:46:57;;;;;;;19.10;14.60;;;;;;;;;;5069208;28;20418;-73
2022/09/29 07:49:23;;;;;;;18.13;14.07;;;;;;;;;;5054728;28;20512;-73
2022/09/29 07:51:51;;;;;;;17.30;13.63;;;;;;;;;;5052613;28;20431;-74
2022/09/29 07:54:17;;;;;;;17.90;13.75;;;;;;;;;;5059676;28;20940;-73
2022/09/29 07:56:43;;;;;;;17.45;13.88;;;;;;;;;;5056501;28;20489;-73
2022/09/29 07:59:12;;;;;;;15.98;12.82;;;;;;;;;;5056369;28;20425;-73
2022/09/29 08:01:38;;;;;;;15.00;13.40;;;;;;;;;;5073961;28;20398;-73
2022/09/29 08:04:05;;;;;;;15.73;13.15;;;;;;;;;;5055601;28;20964;-73
2022/09/29 08:06:32;;;;;;;17.20;13.47;;;;;;;;;;5042127;28;20604;-74
2022/09/29 08:08:59;;;;;;;16.52;13.65;;;;;;;;;;5057375;28;20414;-73
2022/09/29 08:11:27;;;;;;;14.73;12.60;;;;;;;;;;5071853;28;20468;-73
2022/09/29 08:13:53;;;;;;;15.63;12.90;;;;;;;;;;5069750;28;20417;-74
2022/09/29 08:16:20;;;;;;;14.90;12.55;;;;;;;;;;5065214;28;20946;-74
2022/09/29 08:18:47;;;;;;;14.82;12.30;;;;;;;;;;5065256;28;20430;-74
2022/09/29 08:21:14;;;;;;;13.40;11.90;;;;;;;;;;5040090;28;20506;-77
2022/09/29 08:23:41;;;;;;;13.88;12.13;;;;;;;;;;5068306;28;20428;-75
2022/09/29 08:26:08;;;;;;;13.38;11.98;;;;;;;;;;5068484;28;20475;-76
2022/09/29 08:28:36;;;;;;;12.80;11.37;;;11.30;99.90;;;;;;5067400;28;20498;-77
2022/09/29 08:31:29;;;;;;;13.52;11.77;;;11.40;99.90;;;;;;5058130;28;20424;-77
2022/09/29 08:33:57;;;;;;;15.32;10.88;;;;;;;;;;5081248;28;20425;-77
2022/09/29 08:36:23;;;;;;;15.80;11.18;;;;;;;;;;5054893;28;20907;-77
2022/09/29 08:38:54;;;;;;;13.55;10.75;;;;;;;;;;5059195;28;20508;-77
2022/09/29 08:41:28;;;;;;;12.05;10.40;;;;;;;;;;5062856;28;20832;-77
2022/09/29 08:43:57;;;;;;;12.60;10.37;;;;;;;;;;5056343;28;20461;-77
2022/09/29 08:46:29;;;;;;;11.57;10.02;;;;;;;;;;5065115;28;20436;-76
2022/09/29 08:48:58;;;;;;;12.13;10.13;;;12.10;99.90;;;;;;5048676;28;20509;-76
2022/09/29 08:51:24;;;;;;;11.60;10.13;;;;;;;;;;5057995;28;20438;-76
2022/09/29 08:53:53;;;;;;;12.32;8.32;;;;;;;;;;5063953;28;20447;-76
2022/09/29 08:56:20;;;;;;;12.48;8.65;;;;;;;;;;5057639;28;20427;-76
2022/09/29 08:58:46;;;;;;;10.65;8.55;;;;;;;;;;5060887;28;20414;-76
2022/09/29 09:01:15;;;;;;;10.50;8.82;;;;;;;;;;5061119;28;20481;-76
2022/09/29 09:03:49;;;;;;;10.82;8.85;;;;;;;;;;5068194;28;20436;-75
2022/09/29 09:06:38;;;;;;;9.20;7.00;;;;;;;;;;5057826;28;20427;-76
2022/09/29 09:09:16;;;;;;;9.27;7.32;;;;;;;;;;5023997;28;20984;-75
2022/09/29 09:11:43;;;;;;;11.10;7.43;;;;;;;;;;5037235;28;20426;-76
2022/09/29 09:14:18;;;;;;;9.95;7.47;;;;;;;;;;5054220;28;20508;-76
2022/09/29 09:16:44;;;;;;;9.30;7.65;;;;;;;;;;5063739;28;20842;-76
2022/09/29 09:19:21;;;;;;;9.50;6.93;;;14.00;99.90;;;;;;5056503;28;20910;-76
2022/09/29 09:21:59;;;;;;;14.13;7.35;;;14.00;99.90;;;;;;5051553;28;20877;-77
2022/09/29 09:24:31;;;;;;;11.50;6.72;;;;;;;;;;5066463;28;20418;-76
2022/09/29 09:26:58;;;;;;;7.45;5.53;;;;;;;;;;5049612;28;20442;-76
2022/09/29 09:29:29;;;;;;;9.05;6.35;;;;;;;;;;5056808;28;21041;-76
2022/09/29 09:32:04;;;;;;;7.67;6.00;;;;;;;;;;5046090;28;20436;-77
2022/09/29 09:34:37;;;;;;;8.40;6.20;;;;;;;;;;5048327;28;20416;-77
2022/09/29 09:37:10;;;;;;;8.93;6.10;;;14.40;99.90;;;;;;5061940;28;20513;-78
2022/09/29 09:39:39;;;;;;;7.10;5.78;;;;;;;;;;5057890;28;20435;-78
2022/09/29 09:42:14;;;;;;;7.95;6.00;;;;;;;;;;5069706;28;20433;-77
2022/09/29 09:44:45;;;;;;;8.40;5.88;;;;;;;;;;5062033;28;20424;-77
2022/09/29 09:47:20;;;;;;;7.22;6.05;;;;;;;;;;5063001;28;20421;-77
2022/09/29 09:49:51;;;;;;;6.72;5.47;;;14.70;99.90;;;;;;5067235;28;20843;-77
2022/09/29 09:52:42;;;;;;;7.07;5.15;;;15.00;99.90;;;;;;5057796;28;20925;-77
2022/09/29 09:55:16;;;;;;;7.60;5.82;;;;;;;;;;5053845;28;20419;-77
2022/09/29 09:57:51;;;;;;;7.07;5.20;;;;;;;;;;5064287;28;20651;-76
2022/09/29 10:00:21;;;;;;;6.82;5.07;;;;;;;;;;5062238;28;20454;-76
2022/09/29 10:02:53;;;;;;;6.80;4.90;;;15.10;99.90;;;;;;5049464;28;20975;-77
2022/09/29 10:05:25;;;;;;;7.87;4.70;;;15.40;99.90;;;;;;5053608;28;20462;-77
2022/09/29 10:07:52;;;;;;;6.20;4.72;;;;;;;;;;5064734;28;20508;-77
2022/09/29 10:10:23;;;;;;;6.03;4.35;;;15.60;99.90;;;;;;5055985;28;20426;-77
2022/09/29 10:13:09;;;;;;;6.93;4.45;;;15.70;99.90;;;;;;5061901;28;20443;-77
2022/09/29 10:15:38;;;;;;;5.60;3.60;;;;;;;;;;5045955;28;20422;-78
2022/09/29 10:18:06;;;;;;;6.28;4.03;;;;;;;;;;5087110;28;21068;-77
2022/09/29 10:20:34;;;;;;;4.35;3.42;;;;;;;;;;5044179;28;20973;-77
2022/09/29 10:23:27;;;;;;;4.20;3.07;;;15.90;99.90;;;;;;5077757;28;20445;-76
2022/09/29 10:26:00;;;;;;;5.88;3.10;;;15.90;99.90;;;;;;5055418;28;20778;-77
2022/09/29 10:28:28;;;;;;;4.30;2.70;;;;;;;;;;5046180;28;20423;-77
2022/09/29 10:30:54;;;;;;;4.40;2.75;;;;;;;;;;5042252;28;20975;-78
2022/09/29 10:33:23;;;;;;;4.25;2.80;;;15.80;99.90;;;;;;5048117;28;20436;-77
2022/09/29 10:36:01;;;;;;;5.43;2.40;;;15.80;99.90;;;;;;5056961;28;20455;-77
2022/09/29 10:38:27;;;;;;;4.13;2.47;;;;;;;;;;5057110;28;20435;-77
2022/09/29 10:41:03;;;;;;;3.97;2.50;;;;;;;;;;5058750;28;20506;-77
2022/09/29 10:43:32;;;;;;;4.40;2.33;;;;;;;;;;5067786;28;20493;-77
2022/09/29 10:45:58;;;;;;;5.35;2.40;;;;;;;;;;5061472;28;20905;-77
2022/09/29 10:48:25;;;;;;;3.33;2.03;;;;;;;;;;5055503;28;20431;-79
2022/09/29 10:50:53;;;;;;;3.00;2.00;;;;;;;;;;5074646;28;20459;-78
2022/09/29 10:53:22;;;;;;;3.30;1.75;;;;;;;;;;5048781;28;20427;-77
2022/09/29 10:55:53;;;;;;;6.38;2.72;;;;;;;;;;5066372;28;20428;-78
2022/09/29 10:58:24;;;;;;;5.03;2.13;;;;;;;;;;5082680;28;20399;-76
2022/09/29 11:01:02;;;;;;;4.50;2.10;;;;;;;;;;5055148;28;20493;-77
2022/09/29 11:03:28;;;;;;;3.30;1.98;;;;;;;;;;5077802;28;20409;-77
2022/09/29 11:05:54;;;;;;;2.50;1.73;;;;;;;;;;5050442;28;20449;-76
2022/09/29 11:08:24;;;;;;;4.43;1.90;;;;;;;;;;5072302;28;20520;-77
2022/09/29 11:11:05;;;;;;;4.90;2.20;;;17.00;99.90;;;;;;5041756;28;20466;-77
2022/09/29 11:13:31;;;;;;;2.83;2.05;;;;;;;;;;5053734;28;20484;-78
2022/09/29 11:16:24;;;;;;;3.50;2.30;;;16.90;99.90;;;;;;5066116;28;20427;-78
2022/09/29 11:18:54;;;;;;;3.75;2.20;;;17.00;99.90;;;;;;5053836;28;20477;-78
2022/09/29 11:21:20;;;;;;;4.50;2.10;;;;;;;;;;5055763;28;20875;-77
2022/09/29 11:24:23;;;;;;;2.85;2.03;;;17.10;99.90;;;;;;5057726;28;21133;-77
2022/09/29 11:27:01;;;;;;;4.10;2.13;;;17.40;99.90;;;;;;5063905;28;20427;-78
2022/09/29 11:29:45;;;;;;;5.30;2.20;;;17.50;99.90;;;;;;5067269;28;20943;-77
2022/09/29 11:32:40;;;;;;;2.30;1.63;;;17.70;99.90;;;;;;5086771;28;20467;-77
2022/09/29 11:35:28;;;;;;;3.58;1.60;;;;;;;;;;5041076;28;20404;-78
2022/09/29 11:37:58;;;;;;;3.67;2.08;;;;;;;;;;5044997;28;20417;-78
2022/09/29 11:40:46;;;;;;;3.22;2.00;;;17.10;99.90;;;;;;5073262;28;20418;-77
2022/09/29 11:43:43;;;;;;;2.85;1.75;;;16.60;99.90;;;;;;5056355;28;20487;-77
2022/09/29 11:46:31;;;;;;;2.80;1.80;;;17.10;99.90;;;;;;5067062;28;20497;-77
2022/09/29 11:49:25;;;;;;;3.03;1.92;;;17.20;99.90;;;;;;5057467;28;20423;-77
2022/09/29 11:52:01;;;;;;;2.97;2.03;;;;;;;;;;5049078;28;20443;-77
2022/09/29 11:54:33;;;;;;;3.65;2.10;;;;;;;;;;5060208;28;20428;-77
2022/09/29 11:57:07;;;;;;;3.50;1.80;;;;;;;;;;5067858;28;20426;-77
2022/09/29 11:59:49;;;;;;;4.47;1.98;;;16.70;99.90;;;;;;5055648;28;20496;-77
2022/09/29 12:02:27;;;;;;;3.70;1.90;;;16.60;99.90;;;;;;5078957;28;20473;-77
2022/09/29 12:04:53;;;;;;;3.65;1.88;;;;;;;;;;5063018;28;20417;-78
2022/09/29 12:07:45;;;;;;;2.53;1.60;;;16.70;99.90;;;;;;5064823;28;20409;-78
2022/09/29 12:10:24;;;;;;;5.50;1.60;;;16.70;99.90;;;;;;5057916;28;20649;-78
2022/09/29 12:13:09;;;;;;;3.47;1.90;;;17.20;99.90;;;;;;5091078;28;20417;-77
2022/09/29 12:16:02;;;;;;;2.60;1.70;;;17.30;99.90;;;;;;5068459;28;20968;-77
2022/09/29 12:18:53;;;;;;;4.32;1.55;;;17.60;99.90;;;;;;5078483;28;20459;-77
2022/09/29 12:21:31;;;;;;;3.05;1.70;;;17.90;99.90;;;;;;5077369;28;20888;-77
2022/09/29 12:24:02;;;;;;;2.58;1.40;;;17.90;99.90;;;;;;5061804;28;20422;-77
2022/09/29 12:26:29;;;;;;;2.97;1.40;;;17.70;99.90;;;;;;5079225;28;20779;-77
2022/09/29 12:29:27;;;;;;;2.88;1.63;;;18.00;99.90;;;;;;5059408;28;20774;-77
2022/09/29 12:31:55;;;;;;;2.67;1.30;;;17.40;99.90;;;;;;5060338;28;20933;-77
2022/09/29 12:34:39;;;;;;;2.67;1.33;;;;;;;;;;5067661;28;20418;-76
2022/09/29 12:37:35;;;;;;;4.40;1.30;;;17.00;99.90;;;;;;5058591;28;20424;-77
2022/09/29 12:40:09;;;;;;;2.83;1.45;;;17.30;99.90;;;;;;5080309;28;20416;-75
2022/09/29 12:42:43;;;;;;;3.10;1.50;;;17.40;99.90;;;;;;5066956;28;20803;-76
2022/09/29 12:45:22;;;;;;;3.17;1.63;;;18.10;99.90;;;;;;5077787;28;20408;-76
2022/09/29 12:48:05;;;;;;;2.78;1.58;;;18.30;99.90;;;;;;5064146;28;20468;-77
2022/09/29 12:50:55;;;;;;;3.00;1.65;;;18.40;99.90;;;;;;5075220;28;20418;-76
2022/09/29 12:53:37;;;;;;;4.00;1.50;;;18.90;99.90;;;;;;5081954;28;20418;-77
2022/09/29 12:56:11;;;;;;;1.17;0.80;;;19.20;99.90;;;;;;5071763;28;20413;-77
2022/09/29 12:58:53;;;;;;;3.88;1.20;;;19.40;99.90;;;;;;5081409;28;20414;-77
2022/09/29 13:01:28;;;;;;;2.03;1.10;;;19.30;99.90;;;;;;5073403;28;20425;-76
2022/09/29 13:04:17;;;;;;;1.70;1.00;;;;;;;;;;5087094;28;20425;-75
2022/09/29 13:07:16;;;;;;;2.40;0.90;;;18.30;99.90;;;;;;5078892;28;20956;-76
2022/09/29 13:09:59;;;;;;;2.58;1.30;;;17.80;99.90;;;;;;5092827;28;20917;-77
2022/09/29 13:12:29;;;;;;;1.60;1.00;;;;;;;;;;5071940;28;20429;-77
2022/09/29 13:15:18;;;;;;;2.63;0.90;;;;;;;;;;5075577;28;20494;-78
2022/09/29 13:18:24;;;;;;;1.30;0.80;;;17.00;99.90;;;;;;5036083;28;20477;-78
2022/09/29 13:20:59;;;;;;;2.10;0.80;;;17.10;99.90;;;;;;5072723;28;20450;-77
2022/09/29 13:23:30;;;;;;;1.50;0.90;;;;;;;;;;5039254;28;20891;-77
2022/09/29 13:26:06;;;;;;;1.20;0.90;;;16.60;99.90;;;;;;5073306;28;20407;-77
2022/09/29 13:28:40;;;;;;;1.63;0.82;;;;;;;;;;5076851;28;20430;-77
2022/09/29 13:31:33;;;;;;;2.42;0.88;;;;;;;;;;5039285;28;20435;-77
2022/09/29 13:34:00;;;;;;;1.33;0.90;;;;;;;;;;5061519;28;20426;-76
2022/09/29 13:36:35;;;;;;;2.10;1.00;;;16.40;99.90;;;;;;5047421;28;20469;-76
2022/09/29 13:39:02;;;;;;;2.10;1.20;;;;;;;;;;5058636;28;20421;-77
2022/09/29 13:41:31;;;;;;;2.78;0.90;;;;;;;;;;5085165;28;20553;-77
2022/09/29 13:43:57;;;;;;;1.52;0.93;;;;;;;;;;5048126;28;20429;-76
2022/09/29 13:46:29;;;;;;;2.60;1.10;;;16.60;99.90;;;;;;5072596;28;20913;-76
2022/09/29 13:49:13;;;;;;;2.40;1.23;;;;;;;;;;5065343;28;20419;-77
2022/09/29 13:51:39;;;;;;;1.67;1.10;;;;;;;;;;5053816;28;20432;-77
2022/09/29 13:54:24;;;;;;;4.10;1.15;;;;;;;;;;5054087;28;20990;-77
2022/09/29 13:56:52;;;;;;;3.00;1.30;;;;;;;;;;5048473;28;20453;-77
2022/09/29 13:59:23;;;;;;;3.08;1.30;;;;;;;;;;5074381;28;20430;-77
2022/09/29 14:01:50;;;;;;;2.67;1.30;;;;;;;;;;5059407;28;20919;-77
2022/09/29 14:04:31;;;;;;;2.22;1.17;;;;;;;;;;5078748;28;20934;-77
2022/09/29 14:07:03;;;;;;;1.40;0.80;;;15.50;99.90;;;;;;5081649;28;20414;-77
2022/09/29 14:09:41;;;;;;;2.22;0.98;;;;;;;;;;5055263;28;20435;-76
2022/09/29 14:12:15;;;;;;;3.72;1.40;;;15.60;99.90;;;;;;5051297;28;20931;-77
2022/09/29 14:14:44;;;;;;;2.10;1.10;;;;;;;;;;5053632;28;20420;-77
2022/09/29 14:17:13;;;;;;;2.08;1.15;;;;;;;;;;5073970;28;20899;-77
2022/09/29 14:19:39;;;;;;;2.53;1.10;;;;;;;;;;5060783;28;20423;-77
2022/09/29 14:22:25;;;;;;;3.95;1.92;;;;;;;;;;5063573;28;20981;-76
2022/09/29 14:24:54;;;;;;;2.95;1.40;;;;;;;;;;5071142;28;20397;-77